Time;durP1;ratioP1;P1;durP2;ratioP2;P2;SDS_P1;SDS_P2;PMS_P1;PMS_P2;Temp;Humidity;BMP_temperature;BMP_pressure;BME280_temperature;BME280_humidity;BME280_pressure;Samples;Min_cycle;Max_cycle;Signal;HPM_P1;HPM_P2
2022/12/16 00:01:27;;;;;;;38.85;15.65;;;4.50;71.60;;;-0.65;100.00;94008.94;4990646;28;20392;-50
2022/12/16 00:03:58;;;;;;;42.65;16.08;;;4.50;71.60;;;-0.63;100.00;94012.09;5004860;28;20104;-49
2022/12/16 00:06:30;;;;;;;42.70;17.08;;;4.50;71.80;;;-0.62;100.00;94009.28;4984287;28;20369;-52
2022/12/16 00:08:57;;;;;;;42.27;16.83;;;4.50;71.70;;;-0.61;100.00;94008.22;5021848;28;20257;-49
2022/12/16 00:11:31;;;;;;;38.50;16.23;;;4.50;71.80;;;-0.64;100.00;94006.09;4995056;28;20116;-48
2022/12/16 00:14:00;;;;;;;40.88;16.42;;;4.60;71.80;;;-0.62;100.00;94008.47;4993487;28;20543;-48
2022/12/16 00:16:26;;;;;;;40.28;17.10;;;4.60;71.70;;;-0.64;100.00;94013.94;5012244;28;20033;-49
2022/12/16 00:19:01;;;;;;;47.35;17.90;;;4.60;71.70;;;-0.62;100.00;94022.34;5007919;28;20014;-52
2022/12/16 00:21:33;;;;;;;35.50;15.18;;;4.60;71.60;;;-0.58;100.00;94033.13;5002711;28;20044;-49
2022/12/16 00:23:59;;;;;;;37.72;15.98;;;4.60;71.70;;;-0.59;100.00;94034.97;5011796;28;20076;-49
2022/12/16 00:26:25;;;;;;;39.13;15.95;;;4.60;71.70;;;-0.57;100.00;94035.50;5005348;28;20099;-48
2022/12/16 00:28:58;;;;;;;37.60;15.95;;;4.60;71.60;;;-0.55;100.00;94032.66;4994372;28;20025;-49
2022/12/16 00:31:27;;;;;;;40.03;16.80;;;4.70;71.70;;;-0.57;100.00;94032.88;5002282;28;20030;-48
2022/12/16 00:33:59;;;;;;;41.90;16.45;;;4.70;71.60;;;-0.54;100.00;94032.41;4993105;28;20028;-48
2022/12/16 00:36:27;;;;;;;38.47;17.90;;;4.70;71.60;;;-0.53;100.00;94022.78;5009687;28;20116;-50
2022/12/16 00:38:53;;;;;;;39.28;15.98;;;4.70;71.60;;;-0.54;100.00;94021.97;5010811;28;20541;-51
2022/12/16 00:41:25;;;;;;;30.63;15.20;;;4.70;71.60;;;-0.54;100.00;94026.41;5011581;28;20150;-48
2022/12/16 00:44:00;;;;;;;36.47;14.73;;;4.70;71.50;;;-0.52;100.00;94030.38;5000379;28;20017;-48
2022/12/16 00:46:26;;;;;;;36.40;15.88;;;4.70;71.50;;;-0.52;100.00;94026.97;5009056;28;20032;-48
2022/12/16 00:48:57;;;;;;;35.78;15.75;;;4.70;71.50;;;-0.51;100.00;94033.78;4981296;28;20048;-50
2022/12/16 00:51:26;;;;;;;33.40;15.93;;;4.70;71.50;;;-0.52;100.00;94042.66;5004621;28;20482;-48
2022/12/16 00:53:58;;;;;;;34.22;14.73;;;4.70;71.50;;;-0.53;100.00;94038.47;5004100;28;20534;-49
2022/12/16 00:56:24;;;;;;;33.90;14.93;;;4.80;71.50;;;-0.53;100.00;94025.41;5009400;28;20025;-48
2022/12/16 00:58:52;;;;;;;32.72;15.48;;;4.80;71.50;;;-0.58;100.00;94018.22;5011704;28;20537;-48
2022/12/16 01:01:18;;;;;;;32.05;14.13;;;4.80;71.30;;;-0.63;100.00;94014.72;5005445;28;20523;-51
2022/12/16 01:03:47;;;;;;;31.75;14.77;;;4.70;71.20;;;-0.67;100.00;94017.00;4993647;28;20025;-49
2022/12/16 01:06:17;;;;;;;33.75;15.82;;;4.70;71.10;;;-0.64;100.00;94023.59;5009918;28;20044;-55
2022/12/16 01:08:50;;;;;;;49.15;15.00;;;4.70;71.20;;;-0.65;100.00;94033.28;5001937;28;20412;-50
2022/12/16 01:11:19;;;;;;;36.03;15.23;;;4.60;71.10;;;-0.58;100.00;94054.06;5010354;28;20055;-48
2022/12/16 01:13:53;;;;;;;29.33;14.02;;;4.60;71.20;;;-0.60;100.00;94058.72;4999151;28;20034;-48
2022/12/16 01:16:19;;;;;;;28.52;13.95;;;4.60;72.10;;;-0.58;100.00;94064.53;4991628;28;20033;-49
2022/12/16 01:18:54;;;;;;;29.33;13.95;;;4.60;71.30;;;-0.56;100.00;94068.50;4989407;28;20087;-48
2022/12/16 01:21:33;;;;;;;34.60;15.13;;;4.60;71.50;;;-0.55;100.00;94077.94;4991522;28;20117;-49
2022/12/16 01:23:58;;;;;;;36.15;15.73;;;4.70;71.50;;;-0.60;100.00;94077.81;5006209;28;20104;-48
2022/12/16 01:26:28;;;;;;;30.85;14.35;;;4.70;71.40;;;-0.61;100.00;94075.44;5005264;28;20121;-48
2022/12/16 01:28:53;;;;;;;34.97;15.63;;;4.70;71.30;;;-0.60;100.00;94080.44;4991238;28;20032;-56
2022/12/16 01:31:22;;;;;;;35.42;15.65;;;4.70;71.30;;;-0.57;100.00;94087.03;4990371;28;20033;-49
2022/12/16 01:33:48;;;;;;;34.08;15.43;;;4.70;71.30;;;-0.55;100.00;94090.22;4990891;28;20033;-49
2022/12/16 01:36:17;;;;;;;29.38;13.52;;;4.80;71.30;;;-0.55;100.00;94088.38;4990668;28;20037;-48
2022/12/16 01:38:46;;;;;;;32.33;14.60;;;4.70;71.20;;;-0.56;100.00;94080.78;4989187;28;20037;-48
2022/12/16 01:41:16;;;;;;;31.25;13.88;;;4.70;71.20;;;-0.56;100.00;94091.25;4991185;28;20068;-48
2022/12/16 01:43:44;;;;;;;35.60;15.95;;;4.70;71.10;;;-0.59;100.00;94089.09;4989945;28;20026;-48
2022/12/16 01:46:24;;;;;;;35.58;15.38;;;4.70;71.10;;;-0.60;100.00;94087.50;4998768;28;20172;-49
2022/12/16 01:49:25;;;;;;;32.92;14.93;;;4.70;71.10;;;-0.54;100.00;94097.03;4988879;28;20034;-49
2022/12/16 01:51:55;;;;;;;37.35;15.43;;;4.70;71.10;;;-0.55;100.00;94093.63;4974364;28;20094;-52
2022/12/16 01:54:38;;;;;;;32.22;16.05;;;4.70;71.20;;;-0.54;100.00;94087.34;4990452;28;20025;-52
2022/12/16 01:57:28;;;;;;;33.75;15.70;;;4.70;71.20;;;-0.56;100.00;94089.44;4977828;28;20408;-51
2022/12/16 02:00:05;;;;;;;34.28;15.90;;;4.70;71.20;;;-0.54;100.00;94097.03;4989671;28;20396;-49
2022/12/16 02:02:32;;;;;;;30.83;14.98;;;4.70;71.20;;;-0.53;100.00;94096.03;4988816;28;20400;-50
2022/12/16 02:07:43;;;;;;;33.35;15.10;;;4.70;71.20;;;-0.53;100.00;94111.72;4975871;28;20044;-49
2022/12/16 02:10:10;;;;;;;33.15;15.23;;;4.70;71.20;;;-0.54;100.00;94120.56;5005901;28;20033;-48
2022/12/16 02:13:17;;;;;;;34.70;14.88;;;4.70;71.20;;;-0.53;100.00;94122.97;5005044;28;20068;-49
2022/12/16 02:16:26;;;;;;;32.85;15.30;;;4.70;71.20;;;-0.53;100.00;94119.56;4968553;28;20034;-48
2022/12/16 02:19:13;;;;;;;30.50;13.90;;;4.70;71.30;;;-0.52;100.00;94115.91;4989901;28;20032;-48
2022/12/16 02:22:40;;;;;;;29.17;14.15;;;4.70;71.30;;;-0.47;100.00;94116.00;4990919;28;20534;-51
2022/12/16 02:26:05;;;;;;;28.55;13.48;;;4.70;71.30;;;-0.48;100.00;94109.19;5004527;28;20026;-52
2022/12/16 02:28:41;;;;;;;30.67;13.95;;;4.70;71.40;;;-0.49;100.00;94115.44;4984499;28;20029;-49
2022/12/16 02:31:43;;;;;;;31.70;14.75;;;4.70;71.40;;;-0.55;100.00;94116.38;4990422;28;20018;-54
2022/12/16 02:34:47;;;;;;;28.23;13.75;;;4.70;71.30;;;-0.52;100.00;94113.31;4970367;28;20069;-48
2022/12/16 02:38:40;;;;;;;38.45;15.68;;;4.70;72.20;;;-0.46;100.00;94130.69;4986140;28;20084;-49
2022/12/16 02:42:08;;;;;;;32.95;14.20;;;4.70;71.40;;;-0.51;100.00;94131.38;4989556;28;20029;-48
2022/12/16 02:45:01;;;;;;;31.73;14.85;;;4.80;71.50;;;-0.51;100.00;94133.19;4982125;28;20073;-50
2022/12/16 02:47:31;;;;;;;;;;;4.80;71.40;;;-0.52;100.00;94126.38;4991238;28;20488;-48
2022/12/16 02:50:14;;;;;;;34.35;14.27;;;4.80;71.30;;;-0.48;100.00;94138.75;4995240;28;19917;-48
2022/12/16 02:52:41;;;;;;;27.38;12.88;;;4.80;71.30;;;-0.47;100.00;94148.22;5004165;28;20056;-48
2022/12/16 02:55:09;;;;;;;32.33;15.27;;;4.80;71.20;;;-0.45;100.00;94142.72;4989451;28;20065;-54
2022/12/16 02:58:09;;;;;;;31.70;14.57;;;4.80;71.20;;;-0.42;100.00;94147.50;5005726;28;20100;-51
2022/12/16 03:01:12;;;;;;;29.92;14.65;;;4.80;71.20;;;-0.41;100.00;94148.28;5005798;28;20033;-49
2022/12/16 03:04:33;;;;;;;30.55;14.77;;;4.90;71.20;;;-0.40;100.00;94153.31;4975421;28;20046;-51
2022/12/16 03:07:04;;;;;;;35.85;14.57;;;4.90;71.20;;;-0.41;100.00;94158.75;4993645;28;20500;-51
2022/12/16 03:09:41;;;;;;;30.10;13.65;;;4.90;71.20;;;-0.41;100.00;94164.78;4992776;28;20108;-49
2022/12/16 03:12:16;;;;;;;33.50;14.50;;;4.90;71.10;;;-0.40;100.00;94168.22;5009405;28;20041;-53
2022/12/16 03:14:51;;;;;;;30.52;15.38;;;4.90;71.10;;;-0.38;100.00;94169.56;4972367;28;20118;-48
2022/12/16 03:17:23;;;;;;;37.60;15.27;;;4.90;71.10;;;-0.37;100.00;94167.75;4997796;28;20038;-50
2022/12/16 03:20:15;;;;;;;29.27;14.57;;;4.90;71.80;;;-0.38;100.00;94171.38;4999184;28;20033;-49
2022/12/16 03:22:47;;;;;;;29.52;15.02;;;4.90;71.00;;;-0.43;100.00;94169.47;5009026;28;20075;-48
2022/12/16 03:25:15;;;;;;;31.45;14.13;;;4.90;71.00;;;-0.43;100.00;94173.91;4988373;28;20022;-52
2022/12/16 03:28:45;;;;;;;30.65;14.18;;;4.90;70.90;;;-0.43;100.00;94179.94;4992443;28;20029;-48
2022/12/16 03:32:02;;;;;;;32.60;14.85;;;4.90;70.90;;;-0.45;100.00;94181.19;4992923;28;20030;-50
2022/12/16 03:35:03;;;;;;;28.08;14.05;;;4.90;70.90;;;-0.45;100.00;94183.81;5008381;28;20080;-49
2022/12/16 03:37:43;;;;;;;28.88;14.50;;;4.90;71.00;;;-0.43;100.00;94187.00;4977658;28;20091;-48
2022/12/16 03:40:12;;;;;;;29.98;14.65;;;4.90;71.00;;;-0.45;100.00;94187.22;4976495;28;20025;-49
2022/12/16 03:42:41;;;;;;;31.67;15.63;;;4.90;71.00;;;-0.43;100.00;94190.41;4975145;28;20037;-50
2022/12/16 03:45:18;;;;;;;32.72;15.43;;;4.90;70.90;;;-0.45;100.00;94187.22;5008064;28;20030;-53
2022/12/16 03:47:52;;;;;;;28.02;13.77;;;4.90;70.90;;;-0.45;100.00;94192.44;4992478;28;20125;-51
2022/12/16 03:50:31;;;;;;;32.35;15.20;;;4.90;70.90;;;-0.46;100.00;94201.31;4992321;28;20045;-49
2022/12/16 03:52:57;;;;;;;33.70;15.20;;;4.90;70.90;;;-0.44;100.00;94206.31;4991770;28;20038;-56
2022/12/16 03:55:26;;;;;;;32.08;15.07;;;4.90;70.90;;;-0.46;100.00;94206.56;4992023;28;20013;-49
2022/12/16 03:57:53;;;;;;;31.15;14.50;;;4.90;70.90;;;-0.45;100.00;94207.34;4993119;28;20033;-49
2022/12/16 04:00:20;;;;;;;30.42;15.70;;;4.90;70.90;;;-0.43;100.00;94215.78;4992119;28;20055;-52
2022/12/16 04:02:52;;;;;;;35.25;15.52;;;4.90;71.00;;;-0.45;100.00;94221.22;4986092;28;20045;-49
2022/12/16 04:05:18;;;;;;;31.20;15.43;;;4.90;71.80;;;-0.48;100.00;94217.25;4990316;28;20034;-49
2022/12/16 04:07:47;;;;;;;32.15;15.25;;;4.90;70.90;;;-0.46;100.00;94224.88;5006070;28;20025;-49
2022/12/16 04:10:13;;;;;;;33.92;14.98;;;4.90;71.00;;;-0.47;100.00;94218.84;4992347;28;20056;-49
2022/12/16 04:30:17;;;;;;;36.90;15.80;;;4.80;71.00;;;-0.47;100.00;94250.25;4976513;28;20030;-49
2022/12/16 04:32:22;;;;;;;31.90;14.50;;;4.80;71.00;;;-0.49;100.00;94247.03;4989924;28;20025;-54
2022/12/16 04:34:48;;;;;;;36.03;15.93;;;4.90;71.00;;;-0.49;100.00;94256.72;5006121;28;20566;-49
